createdAt,value
2022-10-09T00:01:07.844Z,4.90
2022-10-09T00:03:35.387Z,4.97
2022-10-09T00:06:02.734Z,4.07
2022-10-09T00:08:30.023Z,4.30
2022-10-09T00:10:56.842Z,5.07
2022-10-09T00:13:23.588Z,4.90
2022-10-09T00:15:50.347Z,4.83
2022-10-09T00:18:18.812Z,4.20
2022-10-09T00:20:46.861Z,5.43
2022-10-09T00:23:16.643Z,4.63
2022-10-09T00:25:53.820Z,4.57
2022-10-09T00:28:24.921Z,4.37
2022-10-09T00:30:53.717Z,4.50
2022-10-09T00:33:20.604Z,5.00
2022-10-09T00:35:52.870Z,4.97
2022-10-09T00:38:19.659Z,4.97
2022-10-09T00:40:46.386Z,5.27
2022-10-09T00:43:19.184Z,4.83
2022-10-09T00:45:50.957Z,5.20
2022-10-09T00:48:18.775Z,5.43
2022-10-09T00:50:49.961Z,4.53
2022-10-09T00:53:18.522Z,4.50
2022-10-09T00:55:45.448Z,5.13
2022-10-09T00:58:13.245Z,4.70
2022-10-09T01:00:40.471Z,4.60
2022-10-09T01:03:07.206Z,4.67
2022-10-09T01:06:07.766Z,4.13
2022-10-09T01:08:49.222Z,4.17
2022-10-09T01:11:42.381Z,4.67
2022-10-09T01:14:24.919Z,4.00
2022-10-09T01:17:10.195Z,4.30
2022-10-09T01:20:29.127Z,4.23
2022-10-09T01:23:18.176Z,4.40
2022-10-09T01:25:58.260Z,3.77
2022-10-09T01:28:29.239Z,4.33
2022-10-09T01:30:58.423Z,4.40
2022-10-09T01:33:25.187Z,4.43
2022-10-09T01:35:52.507Z,4.30
2022-10-09T01:38:20.751Z,4.73
2022-10-09T01:40:47.542Z,4.20
2022-10-09T01:43:14.594Z,4.33
2022-10-09T01:45:44.574Z,4.37
2022-10-09T01:48:17.089Z,3.90
2022-10-09T01:50:46.086Z,4.20
2022-10-09T01:53:17.468Z,4.23
2022-10-09T01:56:03.475Z,4.57
2022-10-09T01:58:31.979Z,3.80
2022-10-09T02:01:13.754Z,3.93
2022-10-09T02:03:43.069Z,3.67
2022-10-09T02:06:12.654Z,3.93
2022-10-09T02:08:39.725Z,3.53
2022-10-09T02:11:06.783Z,3.90
2022-10-09T02:13:34.585Z,4.07
2022-10-09T02:16:10.888Z,4.10
2022-10-09T02:18:40.759Z,3.83
2022-10-09T02:21:12.953Z,4.13
2022-10-09T02:23:40.546Z,3.57
2022-10-09T02:26:08.225Z,3.60
2022-10-09T02:28:35.486Z,3.83
2022-10-09T02:31:08.387Z,3.87
2022-10-09T02:33:35.467Z,3.90
2022-10-09T02:36:02.533Z,3.87
2022-10-09T02:38:29.321Z,3.87
2022-10-09T02:41:02.773Z,4.20
2022-10-09T02:43:29.766Z,4.07
2022-10-09T02:45:56.564Z,4.37
2022-10-09T02:48:23.563Z,3.63
2022-10-09T02:50:50.257Z,3.83
2022-10-09T02:53:17.007Z,3.43
2022-10-09T02:55:43.673Z,3.27
2022-10-09T02:58:10.378Z,3.10
2022-10-09T03:00:39.196Z,3.50
2022-10-09T03:03:06.431Z,3.47
2022-10-09T03:05:33.324Z,3.47
2022-10-09T03:08:00.031Z,3.23
2022-10-09T03:10:26.705Z,3.80
2022-10-09T03:12:53.393Z,3.80
2022-10-09T03:15:20.286Z,3.17
2022-10-09T03:17:47.072Z,3.47
2022-10-09T03:20:13.802Z,3.30
2022-10-09T03:22:40.565Z,4.10
2022-10-09T03:25:07.930Z,3.60
2022-10-09T03:27:35.722Z,3.67
2022-10-09T03:30:02.680Z,3.50
2022-10-09T03:32:29.394Z,3.57
2022-10-09T03:34:56.192Z,3.40
2022-10-09T03:37:24.133Z,3.57
2022-10-09T03:39:50.825Z,3.07
2022-10-09T03:42:17.613Z,3.40
2022-10-09T03:44:44.316Z,3.83
2022-10-09T03:47:11.026Z,3.27
2022-10-09T03:49:37.721Z,3.40
2022-10-09T03:52:04.412Z,3.50
2022-10-09T03:54:31.155Z,3.23
2022-10-09T03:56:58.050Z,3.60
2022-10-09T03:59:24.788Z,3.33
2022-10-09T04:01:51.857Z,3.70
2022-10-09T04:04:18.601Z,3.87
2022-10-09T04:06:45.504Z,3.53
2022-10-09T04:09:12.264Z,3.10
2022-10-09T04:11:38.936Z,3.60
2022-10-09T04:14:05.645Z,3.43
2022-10-09T04:16:32.385Z,3.50
2022-10-09T04:18:59.199Z,4.00
2022-10-09T04:21:25.944Z,3.37
2022-10-09T04:23:52.760Z,3.50
2022-10-09T04:26:19.474Z,3.80
2022-10-09T04:28:46.335Z,3.40
2022-10-09T04:31:13.276Z,3.13
2022-10-09T04:33:39.996Z,4.03
2022-10-09T04:36:07.276Z,3.33
2022-10-09T04:38:34.090Z,3.27
2022-10-09T04:41:05.898Z,4.73
2022-10-09T04:43:33.796Z,3.40
2022-10-09T04:46:07.958Z,3.20
2022-10-09T04:48:42.804Z,3.20
2022-10-09T04:51:10.201Z,3.67
2022-10-09T04:53:37.548Z,3.40
2022-10-09T04:56:15.104Z,2.93
2022-10-09T04:58:42.452Z,3.90
2022-10-09T05:01:12.737Z,3.80
2022-10-09T05:03:39.507Z,3.27
2022-10-09T05:06:08.645Z,3.13
2022-10-09T05:08:36.149Z,3.07
2022-10-09T05:11:04.702Z,4.27
2022-10-09T05:13:39.046Z,3.20
2022-10-09T05:16:08.508Z,4.90
2022-10-09T05:18:36.101Z,3.50
2022-10-09T05:21:05.978Z,3.13
2022-10-09T05:23:32.928Z,3.50
2022-10-09T05:26:19.231Z,3.50
2022-10-09T05:28:50.783Z,3.60
2022-10-09T05:31:23.450Z,3.37
2022-10-09T05:33:50.480Z,3.37
2022-10-09T05:36:17.646Z,3.40
2022-10-09T05:38:45.187Z,3.53
2022-10-09T05:41:14.641Z,3.40
2022-10-09T05:43:43.647Z,3.37
2022-10-09T05:46:23.580Z,3.37
2022-10-09T05:48:55.405Z,3.30
2022-10-09T05:51:33.051Z,3.30
2022-10-09T05:54:02.232Z,3.20
2022-10-09T05:56:31.067Z,3.50
2022-10-09T05:59:06.498Z,3.13
2022-10-09T06:01:35.186Z,3.97
2022-10-09T06:04:02.662Z,3.57
2022-10-09T06:06:32.708Z,3.50
2022-10-09T06:08:59.860Z,3.60
2022-10-09T06:11:47.177Z,4.00
2022-10-09T06:14:14.125Z,4.07
2022-10-09T06:16:43.969Z,4.07
2022-10-09T06:19:13.696Z,3.77
2022-10-09T06:21:40.718Z,4.43
2022-10-09T06:24:11.648Z,4.00
2022-10-09T06:26:39.768Z,4.10
2022-10-09T06:29:06.514Z,3.47
2022-10-09T06:31:34.000Z,3.83
2022-10-09T06:34:04.897Z,3.60
2022-10-09T06:36:34.749Z,3.60
2022-10-09T06:39:05.594Z,4.27
2022-10-09T06:41:34.943Z,4.50
2022-10-09T06:44:16.855Z,3.90
2022-10-09T06:46:46.233Z,4.07
2022-10-09T06:49:13.303Z,4.03
2022-10-09T06:54:26.021Z,4.50
2022-10-09T06:56:55.223Z,4.20
2022-10-09T06:59:21.965Z,4.83
2022-10-09T07:01:48.741Z,4.00
2022-10-09T07:04:17.667Z,4.83
2022-10-09T07:06:46.753Z,4.80
2022-10-09T07:09:14.943Z,4.30
2022-10-09T07:11:46.170Z,3.80
2022-10-09T07:14:14.164Z,4.03
2022-10-09T07:16:42.989Z,4.33
2022-10-09T07:19:11.821Z,3.87
2022-10-09T07:21:41.270Z,3.73
2022-10-09T07:24:08.782Z,4.10
2022-10-09T07:26:38.070Z,4.00
2022-10-09T07:29:05.949Z,4.40
2022-10-09T07:31:32.681Z,3.97
2022-10-09T07:33:59.426Z,3.63
2022-10-09T07:36:26.309Z,3.83
2022-10-09T07:38:54.919Z,3.33
2022-10-09T07:41:22.717Z,3.30
2022-10-09T07:43:49.522Z,3.77
2022-10-09T07:46:18.610Z,3.80
2022-10-09T07:48:46.076Z,3.03
2022-10-09T07:51:16.932Z,3.90
2022-10-09T07:53:45.087Z,3.03
2022-10-09T07:56:16.552Z,3.63
2022-10-09T07:58:44.462Z,3.67
2022-10-09T08:01:13.180Z,3.40
2022-10-09T08:03:43.018Z,4.10
2022-10-09T08:06:10.299Z,3.73
2022-10-09T08:08:37.059Z,3.37
2022-10-09T08:11:11.730Z,3.40
2022-10-09T08:13:39.505Z,3.37
2022-10-09T08:16:07.086Z,3.30
2022-10-09T08:18:34.343Z,3.47
2022-10-09T08:21:02.771Z,3.50
2022-10-09T08:23:29.569Z,3.30
2022-10-09T08:25:56.333Z,3.70
2022-10-09T08:28:23.394Z,3.23
2022-10-09T08:30:50.138Z,2.93
2022-10-09T08:33:21.994Z,3.30
2022-10-09T08:35:50.042Z,2.93
2022-10-09T08:38:37.632Z,3.30
2022-10-09T08:41:12.841Z,3.80
2022-10-09T08:43:44.668Z,3.20
2022-10-09T08:46:28.465Z,3.33
2022-10-09T08:48:55.999Z,3.07
2022-10-09T08:51:26.619Z,3.17
2022-10-09T08:54:01.961Z,2.90
2022-10-09T08:56:29.317Z,2.87
2022-10-09T08:58:56.057Z,2.50
2022-10-09T09:01:25.249Z,2.77
2022-10-09T09:04:21.186Z,2.57
2022-10-09T09:06:51.581Z,3.27
2022-10-09T09:09:27.593Z,2.73
2022-10-09T09:12:05.404Z,2.40
2022-10-09T09:14:59.398Z,2.53
2022-10-09T09:17:38.835Z,2.23
2022-10-09T09:20:16.371Z,2.27
2022-10-09T09:22:48.311Z,2.50
2022-10-09T09:25:28.372Z,2.13
2022-10-09T09:28:00.019Z,2.77
2022-10-09T09:30:30.737Z,2.80
2022-10-09T09:33:07.538Z,3.20
2022-10-09T09:36:14.040Z,2.53
2022-10-09T09:39:12.624Z,2.63
2022-10-09T09:41:29.118Z,2.43
2022-10-09T09:43:56.275Z,2.50
2022-10-09T09:46:28.948Z,2.40
2022-10-09T09:48:56.228Z,2.17
2022-10-09T09:51:29.205Z,2.73
2022-10-09T09:54:04.332Z,2.43
2022-10-09T09:56:59.660Z,2.10
2022-10-09T09:59:38.365Z,2.40
2022-10-09T10:02:21.284Z,3.10
2022-10-09T10:04:52.354Z,2.73
2022-10-09T10:07:37.000Z,2.20
2022-10-09T10:10:17.090Z,2.40
2022-10-09T10:12:57.804Z,2.90
2022-10-09T10:15:32.951Z,2.60
2022-10-09T10:18:16.726Z,2.93
2022-10-09T10:20:49.731Z,2.30
2022-10-09T10:23:38.156Z,2.20
2022-10-09T10:26:19.703Z,2.20
2022-10-09T10:29:00.533Z,2.40
2022-10-09T10:31:52.079Z,2.20
2022-10-09T10:34:26.400Z,2.67
2022-10-09T10:37:02.577Z,2.70
2022-10-09T10:39:37.552Z,2.30
2022-10-09T10:42:10.254Z,2.07
2022-10-09T10:44:49.164Z,2.30
2022-10-09T10:47:22.709Z,2.17
2022-10-09T10:49:50.026Z,2.77
2022-10-09T10:52:44.770Z,1.90
2022-10-09T10:55:35.342Z,2.77
2022-10-09T10:58:12.266Z,2.00
2022-10-09T11:00:42.014Z,2.30
2022-10-09T11:03:21.655Z,1.93
2022-10-09T11:06:17.568Z,1.90
2022-10-09T11:09:03.711Z,1.80
2022-10-09T11:11:51.622Z,1.90
2022-10-09T11:14:27.266Z,1.80
2022-10-09T11:17:11.347Z,2.17
2022-10-09T11:20:09.572Z,2.03
2022-10-09T11:22:46.341Z,1.80
2022-10-09T11:25:27.079Z,1.30
2022-10-09T11:28:03.123Z,1.60
2022-10-09T11:30:38.318Z,1.60
2022-10-09T11:33:20.138Z,1.43
2022-10-09T11:36:19.206Z,1.90
2022-10-09T11:38:47.641Z,1.27
2022-10-09T11:41:14.825Z,1.27
2022-10-09T11:43:54.921Z,1.30
2022-10-09T11:46:38.968Z,1.43
2022-10-09T11:49:20.002Z,1.70
2022-10-09T11:52:11.397Z,1.40
2022-10-09T11:54:38.166Z,1.50
2022-10-09T11:57:06.586Z,1.50
2022-10-09T11:59:36.531Z,1.27
2022-10-09T12:02:24.533Z,1.50
2022-10-09T12:04:55.586Z,1.60
2022-10-09T12:07:41.051Z,1.80
2022-10-09T12:10:23.686Z,1.63
2022-10-09T12:13:00.169Z,1.50
2022-10-09T12:15:38.995Z,1.33
2022-10-09T12:18:35.007Z,1.30
2022-10-09T12:21:09.428Z,1.30
2022-10-09T12:23:38.084Z,1.27
2022-10-09T12:26:10.460Z,1.20
2022-10-09T12:28:50.483Z,1.10
2022-10-09T12:31:23.725Z,1.40
2022-10-09T12:34:03.424Z,1.30
2022-10-09T12:36:31.652Z,1.13
2022-10-09T12:39:12.347Z,1.10
2022-10-09T12:41:39.586Z,1.30
2022-10-09T12:44:07.921Z,1.67
2022-10-09T12:46:36.918Z,1.47
2022-10-09T12:49:06.013Z,1.27
2022-10-09T12:51:33.710Z,1.33
2022-10-09T12:54:08.460Z,1.03
2022-10-09T12:56:38.345Z,1.30
2022-10-09T12:59:06.496Z,1.10
2022-10-09T13:01:34.502Z,1.13
2022-10-09T13:04:05.529Z,1.20
2022-10-09T13:06:45.042Z,1.07
2022-10-09T13:09:47.211Z,1.77
2022-10-09T13:12:23.120Z,1.20
2022-10-09T13:14:58.157Z,1.03
2022-10-09T13:17:38.128Z,1.10
2022-10-09T13:20:29.019Z,1.20
2022-10-09T13:22:56.857Z,1.10
2022-10-09T13:25:25.950Z,1.00
2022-10-09T13:27:53.178Z,1.30
2022-10-09T13:30:19.894Z,1.00
2022-10-09T13:32:46.834Z,1.37
2022-10-09T13:35:14.244Z,1.10
2022-10-09T13:37:41.002Z,1.30
2022-10-09T13:40:12.049Z,1.00
2022-10-09T13:42:39.432Z,1.07
2022-10-09T13:45:07.050Z,1.33
2022-10-09T13:47:33.849Z,1.03
2022-10-09T13:50:00.617Z,1.30
2022-10-09T13:52:27.356Z,1.20
2022-10-09T13:54:54.454Z,1.27
2022-10-09T13:57:21.352Z,1.20
2022-10-09T13:59:48.087Z,1.10
2022-10-09T14:02:15.146Z,1.10
2022-10-09T14:04:42.032Z,1.43
2022-10-09T14:07:09.076Z,1.30
2022-10-09T14:09:36.128Z,1.40
2022-10-09T14:12:02.992Z,1.23
2022-10-09T14:14:29.987Z,1.33
2022-10-09T14:16:57.062Z,1.17
2022-10-09T14:19:27.537Z,1.27
2022-10-09T14:21:55.435Z,1.37
2022-10-09T14:24:22.072Z,3.80
2022-10-09T14:26:51.634Z,4.67
2022-10-09T14:29:19.112Z,2.67
2022-10-09T14:31:51.890Z,1.93
2022-10-09T14:34:18.711Z,9.30
2022-10-09T14:36:45.587Z,2.20
2022-10-09T14:39:12.268Z,1.30
2022-10-09T14:41:39.000Z,1.30
2022-10-09T14:44:06.241Z,1.27
2022-10-09T14:46:39.432Z,1.30
2022-10-09T14:49:08.035Z,1.70
2022-10-09T14:51:39.921Z,1.30
2022-10-09T14:54:08.603Z,1.20
2022-10-09T14:56:35.741Z,1.17
2022-10-09T14:59:02.674Z,0.90
2022-10-09T15:01:29.851Z,1.17
2022-10-09T15:03:57.173Z,1.00
2022-10-09T15:06:24.280Z,1.07
2022-10-09T15:09:04.679Z,1.50
2022-10-09T15:11:33.994Z,1.17
2022-10-09T15:14:00.741Z,1.20
2022-10-09T15:16:27.701Z,1.20
2022-10-09T15:18:54.941Z,0.80
2022-10-09T15:21:24.448Z,0.73
2022-10-09T15:23:53.985Z,0.93
2022-10-09T15:26:20.998Z,1.10
2022-10-09T15:28:48.057Z,1.10
2022-10-09T15:31:36.612Z,0.90
2022-10-09T15:34:04.074Z,0.93
2022-10-09T15:36:34.578Z,1.20
2022-10-09T15:39:05.627Z,0.93
2022-10-09T15:41:34.923Z,1.30
2022-10-09T15:44:08.413Z,1.03
2022-10-09T15:46:35.572Z,1.00
2022-10-09T15:49:02.395Z,1.00
2022-10-09T15:51:30.228Z,0.93
2022-10-09T15:53:59.103Z,1.10
2022-10-09T15:56:25.860Z,1.00
2022-10-09T15:58:54.432Z,1.20
2022-10-09T16:01:21.462Z,1.23
2022-10-09T16:03:48.830Z,1.13
2022-10-09T16:06:20.282Z,1.20
2022-10-09T16:08:47.327Z,2.03
2022-10-09T16:11:19.026Z,1.23
2022-10-09T16:13:48.694Z,1.17
2022-10-09T16:16:22.304Z,1.10
2022-10-09T16:18:49.321Z,1.10
2022-10-09T16:21:21.979Z,1.50
2022-10-09T16:23:49.236Z,1.20
2022-10-09T16:26:18.458Z,1.30
2022-10-09T16:28:46.662Z,1.20
2022-10-09T16:31:24.631Z,1.60
2022-10-09T16:33:52.049Z,1.40
2022-10-09T16:36:18.976Z,1.87
2022-10-09T16:38:45.987Z,1.47
2022-10-09T16:41:17.965Z,1.10
2022-10-09T16:43:46.963Z,1.30
2022-10-09T16:46:18.345Z,1.47
2022-10-09T16:48:45.715Z,1.60
2022-10-09T16:51:16.371Z,1.60
2022-10-09T16:53:43.408Z,1.30
2022-10-09T16:56:15.109Z,1.23
2022-10-09T16:58:42.836Z,1.40
2022-10-09T17:01:10.685Z,1.40
2022-10-09T17:03:40.602Z,1.53
2022-10-09T17:06:12.343Z,1.47
2022-10-09T17:08:39.182Z,1.77
2022-10-09T17:11:10.418Z,1.70
2022-10-09T17:13:37.288Z,1.70
2022-10-09T17:16:12.221Z,1.80
2022-10-09T17:18:41.319Z,1.50
2022-10-09T17:21:11.432Z,1.93
2022-10-09T17:23:38.210Z,1.43
2022-10-09T17:26:08.788Z,1.50
2022-10-09T17:28:36.585Z,1.70
2022-10-09T17:31:08.958Z,1.60
2022-10-09T17:33:43.030Z,2.23
2022-10-09T17:36:10.689Z,2.57
2022-10-09T17:38:37.402Z,1.77
2022-10-09T17:41:09.777Z,2.10
2022-10-09T17:43:37.030Z,1.63
2022-10-09T17:46:07.462Z,2.07
2022-10-09T17:48:36.270Z,1.60
2022-10-09T17:51:04.285Z,1.90
2022-10-09T17:53:31.596Z,2.07
2022-10-09T17:56:02.725Z,2.23
2022-10-09T17:58:29.783Z,2.00
2022-10-09T18:00:56.621Z,2.27
2022-10-09T18:03:23.597Z,2.07
2022-10-09T18:05:50.835Z,2.87
2022-10-09T18:08:19.405Z,2.87
2022-10-09T18:10:46.605Z,2.50
2022-10-09T18:13:14.302Z,2.40
2022-10-09T18:15:43.088Z,2.33
2022-10-09T18:18:10.887Z,2.10
2022-10-09T18:20:39.741Z,2.50
2022-10-09T18:23:07.401Z,2.77
2022-10-09T18:25:34.472Z,2.60
2022-10-09T18:28:01.254Z,2.40
2022-10-09T18:30:27.929Z,3.00
2022-10-09T18:32:54.632Z,3.23
2022-10-09T18:35:21.292Z,2.43
2022-10-09T18:37:48.622Z,2.23
2022-10-09T18:40:15.311Z,2.50
2022-10-09T18:42:42.033Z,2.33
2022-10-09T18:45:10.564Z,2.13
2022-10-09T18:47:37.436Z,2.47
2022-10-09T18:50:08.456Z,2.77
2022-10-09T18:52:35.907Z,2.93
2022-10-09T18:55:03.314Z,2.70
2022-10-09T18:57:30.394Z,2.57
2022-10-09T18:59:57.807Z,2.77
2022-10-09T19:02:26.945Z,2.63
2022-10-09T19:04:54.433Z,2.67
2022-10-09T19:07:21.151Z,2.50
2022-10-09T19:09:55.017Z,2.83
2022-10-09T19:12:24.959Z,2.57
2022-10-09T19:14:51.996Z,2.50
2022-10-09T19:17:18.881Z,3.13
2022-10-09T19:19:45.835Z,2.50
2022-10-09T19:22:16.519Z,2.67
2022-10-09T19:24:44.214Z,2.53
2022-10-09T19:27:11.118Z,2.40
2022-10-09T19:29:38.181Z,2.60
2022-10-09T19:32:05.039Z,2.73
2022-10-09T19:34:31.888Z,3.30
2022-10-09T19:36:58.701Z,3.17
2022-10-09T19:39:25.578Z,2.50
2022-10-09T19:41:52.350Z,2.27
2022-10-09T19:44:19.161Z,2.67
2022-10-09T19:46:45.979Z,3.37
2022-10-09T19:49:12.751Z,3.03
2022-10-09T19:51:39.740Z,2.80
2022-10-09T19:54:08.478Z,3.00
2022-10-09T19:56:36.261Z,2.83
2022-10-09T19:59:06.430Z,3.13
2022-10-09T20:01:35.478Z,2.87
2022-10-09T20:04:05.491Z,2.60
2022-10-09T20:06:32.813Z,2.83
2022-10-09T20:09:00.185Z,2.83
2022-10-09T20:11:27.048Z,2.87
2022-10-09T20:13:56.253Z,2.73
2022-10-09T20:16:23.964Z,3.00
2022-10-09T20:18:54.689Z,2.80
2022-10-09T20:21:21.441Z,3.10
2022-10-09T20:23:48.062Z,3.20
2022-10-09T20:26:17.467Z,3.20
2022-10-09T20:28:44.641Z,2.70
2022-10-09T20:31:18.050Z,3.13
2022-10-09T20:33:52.136Z,2.80
2022-10-09T20:36:31.614Z,3.23
2022-10-09T20:38:59.950Z,3.03
2022-10-09T20:41:30.205Z,2.90
2022-10-09T20:43:59.253Z,3.97
2022-10-09T20:46:28.337Z,3.30
2022-10-09T20:48:55.510Z,2.80
2022-10-09T20:51:23.038Z,3.03
2022-10-09T20:53:58.526Z,2.70
2022-10-09T20:56:28.008Z,2.93
2022-10-09T20:58:55.290Z,2.80
2022-10-09T21:01:22.113Z,3.30
2022-10-09T21:03:49.018Z,3.00
2022-10-09T21:06:18.016Z,2.77
2022-10-09T21:08:45.094Z,3.10
2022-10-09T21:11:13.602Z,3.13
2022-10-09T21:13:40.666Z,2.97
2022-10-09T21:16:09.663Z,3.07
2022-10-09T21:18:37.116Z,3.20
2022-10-09T21:21:08.880Z,3.00
2022-10-09T21:23:35.858Z,3.37
2022-10-09T21:26:02.834Z,2.83
2022-10-09T21:28:29.903Z,3.63
2022-10-09T21:30:56.736Z,3.37
2022-10-09T21:33:23.674Z,3.50
2022-10-09T21:35:51.294Z,3.27
2022-10-09T21:38:21.302Z,3.20
2022-10-09T21:40:49.487Z,3.23
2022-10-09T21:43:16.879Z,2.70
2022-10-09T21:45:44.303Z,3.53
2022-10-09T21:48:15.451Z,2.80
2022-10-09T21:50:42.509Z,2.90
2022-10-09T21:53:09.245Z,3.00
2022-10-09T21:55:37.987Z,3.60
2022-10-09T21:58:05.819Z,3.33
2022-10-09T22:00:33.106Z,3.03
2022-10-09T22:02:59.776Z,3.10
2022-10-09T22:05:26.786Z,3.10
2022-10-09T22:07:53.765Z,3.00
2022-10-09T22:10:20.820Z,3.30
2022-10-09T22:12:47.620Z,3.10
2022-10-09T22:15:14.661Z,3.27
2022-10-09T22:17:41.419Z,3.23
2022-10-09T22:20:09.146Z,3.30
2022-10-09T22:22:35.857Z,3.07
2022-10-09T22:25:02.645Z,2.90
2022-10-09T22:27:29.389Z,3.17
2022-10-09T22:29:56.046Z,3.57
2022-10-09T22:32:22.887Z,3.50
2022-10-09T22:34:52.613Z,2.90
2022-10-09T22:37:19.324Z,3.17
2022-10-09T22:39:46.076Z,3.30
2022-10-09T22:42:12.751Z,3.00
2022-10-09T22:44:39.523Z,3.93
2022-10-09T22:47:06.281Z,4.00
2022-10-09T22:49:33.127Z,3.20
2022-10-09T22:51:59.914Z,3.07
2022-10-09T22:54:26.561Z,3.00
2022-10-09T22:56:53.467Z,2.90
2022-10-09T22:59:20.150Z,2.87
2022-10-09T23:01:51.408Z,3.07
2022-10-09T23:04:19.123Z,3.63
2022-10-09T23:06:52.922Z,2.77
2022-10-09T23:09:19.973Z,3.30
2022-10-09T23:11:46.997Z,3.20
2022-10-09T23:14:14.020Z,3.13
2022-10-09T23:16:41.050Z,3.20
2022-10-09T23:19:08.169Z,2.93
2022-10-09T23:21:37.056Z,3.53
2022-10-09T23:24:04.708Z,3.00
2022-10-09T23:26:32.823Z,3.43
2022-10-09T23:29:02.793Z,2.70
2022-10-09T23:31:29.849Z,3.17
2022-10-09T23:33:57.140Z,3.10
2022-10-09T23:36:26.134Z,3.20
2022-10-09T23:38:53.089Z,3.40
2022-10-09T23:41:25.775Z,4.10
2022-10-09T23:43:53.381Z,3.00
2022-10-09T23:46:27.784Z,3.23
2022-10-09T23:48:55.326Z,3.20
2022-10-09T23:51:23.553Z,3.37
2022-10-09T23:53:50.919Z,3.60
2022-10-09T23:56:18.807Z,3.00
2022-10-09T23:58:45.708Z,3.10
